フィレンツェ の空港の天気 - METARとTAF

フィレンツェ・ペレトラ空港 ( LIRQ / FLR ) - イタリア フィレンツェ
飛行場実況気象(Metar)
観測時間10/04 15:20 CEST (10/04 13:20 UTC)
風向・風速不定 2m/s
視程10km以上
天気現象
なし
気温26℃
湿度34%
気圧1020hPa
METARLIRQ 041320Z VRB03KT CAVOK 26/09 Q1020
過去の天気等 Google飛行場航空写真 Wunderground天気予報

過去48時間のMETAR

飛行場予報(TAF)
発表時間: 10/04 13:00 CEST (10/04 11:00 UTC)
予報対象時間: 4日14時 CEST ~ 5日14時 CEST
風向・風速不定 3m/s
視程10km以上
少しの雲 雲底高度 910m
5日2時 CEST ~ 5日8時 CEST に一時的に
視程4000m
天気現象もや
TAF LIRQ 041100Z 0412/0512 VRB05KT 9999 FEW030
TEMPO 0500/0506 4000 BR